Sunday, June 24, 2018, 8:44 PM EDT
Back to Local

KIDI, Indiana / Stewart Field

Location: Indiana, PA, United States Lat: 40.633
Local Time: 8:44 PM EDT ( 0:44 GMT) Lon: -79.1
Time Zone: US/Eastern Elev: 1407 ft

Show me the last for .
Show Decoded

2018-06-24 20:35 METAR KIDI 250035Z AUTO 33005KT 10SM FEW041 BKN050 OVC085 22/17 A2998 RMK A01 =
2018-06-24 20:15 METAR KIDI 250015Z AUTO VRB06G14KT 10SM FEW041 BKN065 OVC085 22/17 A2998 RMK A01
                 =
2018-06-24 19:55 METAR KIDI 242355Z AUTO 34008KT 310V010 10SM BKN042 BKN050 BKN065 23/17 A2997
                 RMK A01 =
2018-06-24 19:35 METAR KIDI 242335Z AUTO 31006KT 10SM FEW044 OVC050 24/16 A2995 RMK A01 =
2018-06-24 19:15 METAR KIDI 242315Z AUTO 30006G13KT 10SM BKN050 BKN055 24/16 A2995 RMK A01 =
2018-06-24 18:55 METAR KIDI 242255Z AUTO VRB04KT 10SM BKN049 BKN055 24/16 A2994 RMK A01 =
2018-06-24 18:35 METAR KIDI 242235Z AUTO 30007G13KT 10SM CLR 25/16 A2994 RMK A01 =
2018-06-24 18:15 METAR KIDI 242215Z AUTO 31008G14KT 270V330 10SM FEW060 25/15 A2995 RMK A01 =
2018-06-24 17:55 METAR KIDI 242155Z AUTO 30009G15KT 10SM CLR 25/15 A2995 RMK A01 =
2018-06-24 17:35 METAR KIDI 242135Z AUTO 32007KT 10SM CLR 25/18 A2995 RMK A01 =
2018-06-24 17:15 METAR KIDI 242115Z AUTO 34007KT 300V360 10SM CLR 25/18 A2996 RMK A01 =
2018-06-24 16:55 METAR KIDI 242055Z AUTO 34007G14KT 10SM FEW100 24/18 A2995 RMK A01 =
2018-06-24 16:35 METAR KIDI 242035Z AUTO 34009KT 10SM BKN100 24/18 A2995 RMK A01 =
2018-06-24 16:15 METAR KIDI 242015Z AUTO 35008G15KT 10SM OVC100 23/17 A2995 RMK A01 =
2018-06-24 15:55 METAR KIDI 241955Z AUTO 33011G21KT 10SM FEW030 SCT038 BKN060 23/18 A2994 RMK A01
                 =
2018-06-24 15:35 METAR KIDI 241935Z AUTO 32011G19KT 10SM SCT037 BKN045 BKN050 26/18 A2992 RMK A01
                 =
2018-06-24 15:15 METAR KIDI 241915Z AUTO 30011G18KT 260V320 10SM SCT040 BKN047 26/18 A2991 RMK
                 A01 =
2018-06-24 14:55 METAR KIDI 241855Z AUTO 28012G21KT 10SM FEW039 SCT044 BKN085 25/18 A2990 RMK A01
                 =
2018-06-24 14:35 METAR KIDI 241835Z AUTO 27009G23KT 10SM BKN090 25/19 A2991 RMK A01 =
2018-06-24 14:15 METAR KIDI 241815Z AUTO 25010G15KT 10SM FEW070 BKN090 25/20 A2991 RMK A01 =
2018-06-24 13:55 METAR KIDI 241755Z AUTO 25009G14KT 10SM SCT070 BKN085 24/19 A2992 RMK A01 =
2018-06-24 13:35 METAR KIDI 241735Z AUTO 27010G18KT 250V310 10SM SCT085 24/19 A2992 RMK A01 =
2018-06-24 13:15 METAR KIDI 241715Z AUTO 27009KT 10SM FEW075 FEW100 23/21 A2993 RMK A01 =
2018-06-24 12:55 METAR KIDI 241655Z AUTO 27009G14KT 2 1/2SM BR FEW028 FEW043 BKN075 22/20 A2993
                 RMK A01 =
2018-06-24 12:35 METAR KIDI 241635Z AUTO 28007KT 10SM OVC080 23/19 A2994 RMK A01 =
2018-06-24 12:15 METAR KIDI 241615Z AUTO 27009KT 10SM FEW030 SCT046 BKN085 23/20 A2994 RMK A01 =
2018-06-24 11:55 METAR KIDI 241555Z AUTO 27007KT 6SM BR FEW030 SCT039 BKN045 22/19 A2994 RMK A01
                 =
2018-06-24 11:35 METAR KIDI 241535Z AUTO 26009KT 9SM FEW041 BKN050 OVC075 22/19 A2994 RMK A01 =
2018-06-24 11:15 METAR KIDI 241515Z AUTO 24010KT 10SM FEW019 SCT035 BKN044 23/20 A2993 RMK A01 =
2018-06-24 10:55 METAR KIDI 241455Z AUTO 24010KT 230V290 10SM FEW018 SCT022 BKN028 23/20 A2992
                 RMK A01 =
2018-06-24 10:35 METAR KIDI 241435Z AUTO 26008G14KT 10SM FEW015 BKN028 OVC080 22/20 A2993 RMK A01
                 =
2018-06-24 10:15 METAR KIDI 241415Z AUTO 24006KT 10SM SCT012 BKN019 OVC080 22/20 A2993 RMK A01 =
2018-06-24 09:55 METAR KIDI 241355Z AUTO 26008KT 10SM SCT010 BKN014 OVC035 22/20 A2993 RMK A01 =
2018-06-24 09:35 METAR KIDI 241335Z AUTO 27008KT 9SM FEW009 BKN014 OVC075 21/20 A2992 RMK A01 =
2018-06-24 09:15 METAR KIDI 241315Z AUTO 27006KT 8SM SCT010 SCT026 OVC075 21/21 A2993 RMK A01 =
2018-06-24 08:55 METAR KIDI 241255Z AUTO 26006KT 7SM BKN008 BKN026 OVC075 20/20 A2993 RMK A01 =
2018-06-24 08:35 METAR KIDI 241235Z AUTO 24007KT 5SM BR BKN007 BKN011 OVC044 20/20 A2993 RMK A01
                 =
2018-06-24 08:15 METAR KIDI 241215Z AUTO 25007KT 5SM BR OVC008 20/20 A2993 RMK A01 =
2018-06-24 07:55 METAR KIDI 241155Z AUTO 23004KT 4SM BR SCT008 BKN027 OVC031 19/19 A2992 RMK A01
                 =
2018-06-24 07:35 METAR KIDI 241135Z AUTO 23004KT 4SM BR OVC030 19/19 A2992 RMK A01 =
2018-06-24 07:15 METAR KIDI 241115Z AUTO 23004KT 4SM BR FEW008 BKN033 OVC080 19/19 A2992 RMK A01
                 =
2018-06-24 06:55 METAR KIDI 241055Z AUTO 23004KT 3SM BR SCT008 SCT031 OVC080 19/19 A2991 RMK A01
                 =
2018-06-24 06:35 METAR KIDI 241035Z AUTO 25003KT 2 1/2SM BR SCT008 BKN031 OVC070 19/19 A2991 RMK
                 A01 =
2018-06-24 06:15 METAR KIDI 241015Z AUTO 25004KT 3SM BR OVC070 19/19 A2991 RMK A01 =
2018-06-24 05:55 METAR KIDI 240955Z AUTO 25005KT 4SM BR OVC070 19/19 A2990 RMK A01 =
2018-06-24 05:35 METAR KIDI 240935Z AUTO 24006KT 4SM BR FEW003 OVC070 19/19 A2990 RMK A01 =
2018-06-24 05:15 METAR KIDI 240915Z AUTO 24005KT 3SM BR FEW003 OVC065 19/19 A2989 RMK A01 =
2018-06-24 04:55 METAR KIDI 240855Z AUTO 23004KT 3SM BR FEW043 BKN065 19/19 A2989 RMK A01 =
2018-06-24 04:35 METAR KIDI 240835Z AUTO 25004KT 3SM BR FEW018 SCT042 SCT060 19/19 A2989 RMK A01
                 =
2018-06-24 04:15 METAR KIDI 240815Z AUTO 25004KT 5SM BR FEW009 SCT017 BKN055 19/19 A2989 RMK A01
                 =
2018-06-24 03:55 METAR KIDI 240755Z AUTO 24005KT 6SM BR FEW004 SCT010 BKN019 19/19 A2989 RMK A01
                 =
2018-06-24 03:35 METAR KIDI 240735Z AUTO 24005KT 4SM BR BKN004 BKN018 OVC032 19/19 A2989 RMK A01
                 =
2018-06-24 03:15 METAR KIDI 240715Z AUTO 24006KT 3SM BR BKN004 BKN020 OVC055 19/19 A2989 RMK A01
                 =
2018-06-24 02:55 METAR KIDI 240655Z AUTO 24006KT 9SM FEW008 SCT019 BKN042 19/19 A2989 RMK A01 =
2018-06-24 02:35 METAR KIDI 240635Z AUTO 24007KT 7SM FEW004 BKN019 OVC026 19/19 A2989 RMK A01 =
2018-06-24 02:15 METAR KIDI 240615Z AUTO 27003KT 6SM BR FEW004 SCT024 BKN029 19/19 A2989 RMK A01
                 =
2018-06-24 01:55 METAR KIDI 240555Z AUTO 24003KT 4SM BR FEW003 SCT049 OVC060 19/19 A2988 RMK A01
                 =
2018-06-24 01:35 METAR KIDI 240535Z AUTO 22006KT 5SM BR FEW026 BKN045 OVC075 19/19 A2988 RMK A01
                 =
2018-06-24 01:15 METAR KIDI 240515Z AUTO 23008KT 3SM BR FEW005 BKN031 OVC060 19/19 A2988 RMK A01
                 =
2018-06-24 00:55 METAR KIDI 240455Z AUTO 23005KT 5SM BR SCT005 SCT032 OVC070 19/19 A2988 RMK A01
                 =
2018-06-24 00:35 METAR KIDI 240435Z AUTO 21003KT 7SM SCT024 OVC065 19/19 A2988 RMK A01 =
2018-06-24 00:15 METAR KIDI 240415Z AUTO 00000KT 6SM BR BKN025 OVC065 19/19 A2988 RMK A01 =
2018-06-23 23:35 METAR KIDI 240335Z AUTO 00000KT 10SM BKN031 19/19 A2988 RMK A01 =
2018-06-23 23:15 METAR KIDI 240315Z AUTO 25003KT 10SM SCT033 BKN075 19/19 A2988 RMK A01 =
2018-06-23 22:55 METAR KIDI 240255Z AUTO 00000KT 10SM OVC070 19/19 A2988 RMK A01 =
2018-06-23 22:35 METAR KIDI 240235Z AUTO 00000KT 10SM FEW034 OVC070 19/19 A2988 RMK A01 =
2018-06-23 22:15 METAR KIDI 240215Z AUTO 00000KT 10SM FEW034 OVC060 19/19 A2987 RMK A01 =
2018-06-23 21:55 METAR KIDI 240155Z AUTO 00000KT 10SM BKN055 BKN085 19/19 A2987 RMK A01 =
2018-06-23 21:35 METAR KIDI 240135Z AUTO 25003KT 10SM BKN055 OVC080 19/19 A2986 RMK A01 =
2018-06-23 21:15 METAR KIDI 240115Z AUTO 24004KT 10SM BKN080 OVC090 19/19 A2986 RMK A01 =
2018-06-23 20:55 METAR KIDI 240055Z AUTO 24003KT 10SM SCT060 BKN070 BKN080 19/19 A2985 RMK A01 =

Support USWX by starting your Amazon purchase here.